sensor_id;sensor_type;location;lat;lon;timestamp;P1;durP1;ratioP1;P2;durP2;ratioP2
8040;SDS011;4063;48.140;10.250;2022-07-21T00:00:44;21.33;;;16.90;;
8040;SDS011;4063;48.140;10.250;2022-07-21T00:03:10;16.45;;;14.85;;
8040;SDS011;4063;48.140;10.250;2022-07-21T00:05:36;15.50;;;13.82;;
8040;SDS011;4063;48.140;10.250;2022-07-21T00:08:02;16.42;;;14.82;;
8040;SDS011;4063;48.140;10.250;2022-07-21T00:10:28;14.95;;;13.35;;
8040;SDS011;4063;48.140;10.250;2022-07-21T00:12:54;15.10;;;13.65;;
8040;SDS011;4063;48.140;10.250;2022-07-21T00:15:21;13.60;;;12.30;;
8040;SDS011;4063;48.140;10.250;2022-07-21T00:17:47;12.52;;;11.32;;
8040;SDS011;4063;48.140;10.250;2022-07-21T00:20:14;11.45;;;10.40;;
8040;SDS011;4063;48.140;10.250;2022-07-21T00:22:41;11.68;;;10.50;;
8040;SDS011;4063;48.140;10.250;2022-07-21T00:25:08;12.48;;;10.90;;
8040;SDS011;4063;48.140;10.250;2022-07-21T00:27:34;12.18;;;11.07;;
8040;SDS011;4063;48.140;10.250;2022-07-21T00:30:01;13.85;;;11.68;;
8040;SDS011;4063;48.140;10.250;2022-07-21T00:32:28;12.85;;;11.55;;
8040;SDS011;4063;48.140;10.250;2022-07-21T00:34:54;13.93;;;12.60;;
8040;SDS011;4063;48.140;10.250;2022-07-21T00:37:20;14.20;;;12.77;;
8040;SDS011;4063;48.140;10.250;2022-07-21T00:39:49;14.63;;;13.18;;
8040;SDS011;4063;48.140;10.250;2022-07-21T00:42:21;15.63;;;14.13;;
8040;SDS011;4063;48.140;10.250;2022-07-21T00:44:47;17.55;;;15.77;;
8040;SDS011;4063;48.140;10.250;2022-07-21T00:47:13;18.58;;;16.88;;
8040;SDS011;4063;48.140;10.250;2022-07-21T00:49:39;19.02;;;17.23;;
8040;SDS011;4063;48.140;10.250;2022-07-21T00:52:06;21.30;;;19.13;;
8040;SDS011;4063;48.140;10.250;2022-07-21T00:54:32;23.17;;;19.20;;
8040;SDS011;4063;48.140;10.250;2022-07-21T00:56:58;20.58;;;18.60;;
8040;SDS011;4063;48.140;10.250;2022-07-21T00:59:24;20.45;;;18.35;;
8040;SDS011;4063;48.140;10.250;2022-07-21T01:01:50;21.85;;;19.85;;
8040;SDS011;4063;48.140;10.250;2022-07-21T01:04:16;22.08;;;19.80;;
8040;SDS011;4063;48.140;10.250;2022-07-21T01:06:42;22.85;;;20.38;;
8040;SDS011;4063;48.140;10.250;2022-07-21T01:09:08;22.05;;;20.05;;
8040;SDS011;4063;48.140;10.250;2022-07-21T01:11:35;29.58;;;23.08;;
8040;SDS011;4063;48.140;10.250;2022-07-21T01:14:01;23.00;;;20.73;;
8040;SDS011;4063;48.140;10.250;2022-07-21T01:16:27;24.20;;;21.67;;
8040;SDS011;4063;48.140;10.250;2022-07-21T01:18:53;24.50;;;21.33;;
8040;SDS011;4063;48.140;10.250;2022-07-21T01:23:45;24.48;;;22.23;;
8040;SDS011;4063;48.140;10.250;2022-07-21T01:26:11;24.48;;;22.27;;
8040;SDS011;4063;48.140;10.250;2022-07-21T01:28:37;28.70;;;22.80;;
8040;SDS011;4063;48.140;10.250;2022-07-21T01:31:03;24.58;;;22.08;;
8040;SDS011;4063;48.140;10.250;2022-07-21T01:33:29;24.35;;;22.15;;
8040;SDS011;4063;48.140;10.250;2022-07-21T01:35:55;24.95;;;22.35;;
8040;SDS011;4063;48.140;10.250;2022-07-21T01:38:21;24.63;;;22.20;;
8040;SDS011;4063;48.140;10.250;2022-07-21T01:41:06;23.52;;;21.20;;
8040;SDS011;4063;48.140;10.250;2022-07-21T01:43:50;23.08;;;20.73;;
8040;SDS011;4063;48.140;10.250;2022-07-21T01:46:16;23.73;;;21.58;;
8040;SDS011;4063;48.140;10.250;2022-07-21T01:48:42;22.65;;;20.55;;
8040;SDS011;4063;48.140;10.250;2022-07-21T01:51:09;23.58;;;21.20;;
8040;SDS011;4063;48.140;10.250;2022-07-21T01:53:35;24.35;;;21.92;;
8040;SDS011;4063;48.140;10.250;2022-07-21T01:56:01;23.88;;;21.83;;
8040;SDS011;4063;48.140;10.250;2022-07-21T01:58:27;24.42;;;22.23;;
8040;SDS011;4063;48.140;10.250;2022-07-21T02:00:54;23.52;;;21.33;;
8040;SDS011;4063;48.140;10.250;2022-07-21T02:03:20;23.77;;;21.67;;
8040;SDS011;4063;48.140;10.250;2022-07-21T02:05:46;21.48;;;19.40;;
8040;SDS011;4063;48.140;10.250;2022-07-21T02:08:12;22.52;;;20.42;;
8040;SDS011;4063;48.140;10.250;2022-07-21T02:10:38;21.85;;;19.83;;
8040;SDS011;4063;48.140;10.250;2022-07-21T02:13:04;22.98;;;20.80;;
8040;SDS011;4063;48.140;10.250;2022-07-21T02:15:30;22.38;;;20.38;;
8040;SDS011;4063;48.140;10.250;2022-07-21T02:17:57;22.70;;;20.45;;
8040;SDS011;4063;48.140;10.250;2022-07-21T02:20:23;24.40;;;22.20;;
8040;SDS011;4063;48.140;10.250;2022-07-21T02:22:50;23.52;;;21.45;;
8040;SDS011;4063;48.140;10.250;2022-07-21T02:25:16;25.40;;;23.05;;
8040;SDS011;4063;48.140;10.250;2022-07-21T02:27:42;23.20;;;21.10;;
8040;SDS011;4063;48.140;10.250;2022-07-21T02:30:09;24.25;;;21.17;;
8040;SDS011;4063;48.140;10.250;2022-07-21T02:32:35;23.23;;;20.90;;
8040;SDS011;4063;48.140;10.250;2022-07-21T02:35:01;23.52;;;21.23;;
8040;SDS011;4063;48.140;10.250;2022-07-21T02:37:27;23.90;;;21.60;;
8040;SDS011;4063;48.140;10.250;2022-07-21T02:39:53;23.85;;;21.30;;
8040;SDS011;4063;48.140;10.250;2022-07-21T02:42:19;25.40;;;21.23;;
8040;SDS011;4063;48.140;10.250;2022-07-21T02:44:45;23.25;;;21.17;;
8040;SDS011;4063;48.140;10.250;2022-07-21T02:47:11;23.55;;;21.33;;
8040;SDS011;4063;48.140;10.250;2022-07-21T02:49:37;23.90;;;21.52;;
8040;SDS011;4063;48.140;10.250;2022-07-21T02:52:04;22.75;;;20.45;;
8040;SDS011;4063;48.140;10.250;2022-07-21T02:54:30;22.85;;;20.67;;
8040;SDS011;4063;48.140;10.250;2022-07-21T02:56:56;22.85;;;20.77;;
8040;SDS011;4063;48.140;10.250;2022-07-21T02:59:22;23.33;;;21.23;;
8040;SDS011;4063;48.140;10.250;2022-07-21T03:01:48;23.70;;;21.42;;
8040;SDS011;4063;48.140;10.250;2022-07-21T03:04:14;24.17;;;21.95;;
8040;SDS011;4063;48.140;10.250;2022-07-21T03:06:40;23.23;;;21.13;;
8040;SDS011;4063;48.140;10.250;2022-07-21T03:09:07;23.45;;;21.33;;
8040;SDS011;4063;48.140;10.250;2022-07-21T03:11:34;23.42;;;21.42;;
8040;SDS011;4063;48.140;10.250;2022-07-21T03:14:00;25.38;;;23.02;;
8040;SDS011;4063;48.140;10.250;2022-07-21T03:16:26;22.73;;;20.70;;
8040;SDS011;4063;48.140;10.250;2022-07-21T03:18:52;24.15;;;21.98;;
8040;SDS011;4063;48.140;10.250;2022-07-21T03:21:18;23.73;;;21.55;;
8040;SDS011;4063;48.140;10.250;2022-07-21T03:23:44;27.00;;;24.70;;
8040;SDS011;4063;48.140;10.250;2022-07-21T03:26:13;27.17;;;24.63;;
8040;SDS011;4063;48.140;10.250;2022-07-21T03:28:39;25.92;;;23.30;;
8040;SDS011;4063;48.140;10.250;2022-07-21T03:31:05;26.50;;;23.77;;
8040;SDS011;4063;48.140;10.250;2022-07-21T03:33:31;27.00;;;24.20;;
8040;SDS011;4063;48.140;10.250;2022-07-21T03:35:57;26.40;;;23.77;;
8040;SDS011;4063;48.140;10.250;2022-07-21T03:38:24;26.02;;;23.50;;
8040;SDS011;4063;48.140;10.250;2022-07-21T03:40:50;27.48;;;25.08;;
8040;SDS011;4063;48.140;10.250;2022-07-21T03:43:16;26.55;;;23.85;;
8040;SDS011;4063;48.140;10.250;2022-07-21T03:45:42;26.83;;;24.38;;
8040;SDS011;4063;48.140;10.250;2022-07-21T03:48:08;27.92;;;25.13;;
8040;SDS011;4063;48.140;10.250;2022-07-21T03:50:38;27.27;;;24.63;;
8040;SDS011;4063;48.140;10.250;2022-07-21T03:53:05;26.88;;;24.33;;
8040;SDS011;4063;48.140;10.250;2022-07-21T03:55:31;28.58;;;25.98;;
8040;SDS011;4063;48.140;10.250;2022-07-21T03:58:02;28.05;;;25.42;;
8040;SDS011;4063;48.140;10.250;2022-07-21T04:00:40;28.10;;;25.38;;
8040;SDS011;4063;48.140;10.250;2022-07-21T04:03:07;28.95;;;26.30;;
8040;SDS011;4063;48.140;10.250;2022-07-21T04:05:33;29.75;;;26.85;;
8040;SDS011;4063;48.140;10.250;2022-07-21T04:07:59;30.45;;;27.65;;
8040;SDS011;4063;48.140;10.250;2022-07-21T04:10:28;30.00;;;26.90;;
8040;SDS011;4063;48.140;10.250;2022-07-21T04:12:54;30.05;;;26.85;;
8040;SDS011;4063;48.140;10.250;2022-07-21T04:15:20;31.23;;;28.02;;
8040;SDS011;4063;48.140;10.250;2022-07-21T04:17:46;32.38;;;29.35;;
8040;SDS011;4063;48.140;10.250;2022-07-21T04:20:13;34.33;;;30.90;;
8040;SDS011;4063;48.140;10.250;2022-07-21T04:22:40;33.80;;;30.52;;
8040;SDS011;4063;48.140;10.250;2022-07-21T04:25:06;32.30;;;29.30;;
8040;SDS011;4063;48.140;10.250;2022-07-21T04:27:33;37.20;;;29.90;;
8040;SDS011;4063;48.140;10.250;2022-07-21T04:29:59;34.67;;;31.25;;
8040;SDS011;4063;48.140;10.250;2022-07-21T04:32:25;33.33;;;30.13;;
8040;SDS011;4063;48.140;10.250;2022-07-21T04:34:51;33.30;;;30.00;;
8040;SDS011;4063;48.140;10.250;2022-07-21T04:37:17;33.72;;;30.55;;
8040;SDS011;4063;48.140;10.250;2022-07-21T04:39:43;32.15;;;29.25;;
8040;SDS011;4063;48.140;10.250;2022-07-21T04:42:09;34.55;;;31.10;;
8040;SDS011;4063;48.140;10.250;2022-07-21T04:44:35;33.25;;;29.90;;
8040;SDS011;4063;48.140;10.250;2022-07-21T04:47:01;30.95;;;27.88;;
8040;SDS011;4063;48.140;10.250;2022-07-21T04:49:27;30.50;;;27.60;;
8040;SDS011;4063;48.140;10.250;2022-07-21T04:51:53;32.70;;;29.70;;
8040;SDS011;4063;48.140;10.250;2022-07-21T04:54:19;32.97;;;29.58;;
8040;SDS011;4063;48.140;10.250;2022-07-21T04:56:45;34.17;;;30.75;;
8040;SDS011;4063;48.140;10.250;2022-07-21T04:59:11;32.83;;;29.38;;
8040;SDS011;4063;48.140;10.250;2022-07-21T05:01:37;30.42;;;27.50;;
8040;SDS011;4063;48.140;10.250;2022-07-21T05:04:04;33.25;;;30.13;;
8040;SDS011;4063;48.140;10.250;2022-07-21T05:06:30;32.30;;;29.23;;
8040;SDS011;4063;48.140;10.250;2022-07-21T05:08:56;32.97;;;29.88;;
8040;SDS011;4063;48.140;10.250;2022-07-21T05:11:22;31.83;;;29.08;;
8040;SDS011;4063;48.140;10.250;2022-07-21T05:13:48;31.25;;;28.42;;
8040;SDS011;4063;48.140;10.250;2022-07-21T05:16:14;32.17;;;28.65;;
8040;SDS011;4063;48.140;10.250;2022-07-21T05:18:40;32.28;;;29.17;;
8040;SDS011;4063;48.140;10.250;2022-07-21T05:21:06;32.63;;;29.15;;
8040;SDS011;4063;48.140;10.250;2022-07-21T05:23:32;29.98;;;26.98;;
8040;SDS011;4063;48.140;10.250;2022-07-21T05:25:58;30.90;;;27.88;;
8040;SDS011;4063;48.140;10.250;2022-07-21T05:28:24;31.67;;;28.45;;
8040;SDS011;4063;48.140;10.250;2022-07-21T05:30:52;31.77;;;28.58;;
8040;SDS011;4063;48.140;10.250;2022-07-21T05:33:18;31.08;;;27.98;;
8040;SDS011;4063;48.140;10.250;2022-07-21T05:35:44;30.13;;;27.35;;
8040;SDS011;4063;48.140;10.250;2022-07-21T05:38:10;30.73;;;27.80;;
8040;SDS011;4063;48.140;10.250;2022-07-21T05:40:36;30.67;;;27.42;;
8040;SDS011;4063;48.140;10.250;2022-07-21T05:43:02;28.88;;;26.00;;
8040;SDS011;4063;48.140;10.250;2022-07-21T05:45:28;26.48;;;24.10;;
8040;SDS011;4063;48.140;10.250;2022-07-21T05:47:54;28.17;;;25.58;;
8040;SDS011;4063;48.140;10.250;2022-07-21T05:50:20;28.17;;;25.58;;
8040;SDS011;4063;48.140;10.250;2022-07-21T05:52:46;28.38;;;25.38;;
8040;SDS011;4063;48.140;10.250;2022-07-21T05:55:12;29.02;;;26.00;;
8040;SDS011;4063;48.140;10.250;2022-07-21T05:57:38;28.80;;;26.10;;
8040;SDS011;4063;48.140;10.250;2022-07-21T06:00:05;29.70;;;25.38;;
8040;SDS011;4063;48.140;10.250;2022-07-21T06:02:31;28.88;;;26.23;;
8040;SDS011;4063;48.140;10.250;2022-07-21T06:04:57;27.55;;;24.85;;
8040;SDS011;4063;48.140;10.250;2022-07-21T06:07:23;30.13;;;26.88;;
8040;SDS011;4063;48.140;10.250;2022-07-21T06:09:49;31.45;;;28.45;;
8040;SDS011;4063;48.140;10.250;2022-07-21T06:12:15;30.13;;;27.05;;
8040;SDS011;4063;48.140;10.250;2022-07-21T06:16:22;29.45;;;26.52;;
8040;SDS011;4063;48.140;10.250;2022-07-21T06:18:49;27.15;;;24.40;;
8040;SDS011;4063;48.140;10.250;2022-07-21T06:21:14;29.77;;;26.90;;
8040;SDS011;4063;48.140;10.250;2022-07-21T06:23:40;29.25;;;26.30;;
8040;SDS011;4063;48.140;10.250;2022-07-21T06:26:06;26.73;;;24.00;;
8040;SDS011;4063;48.140;10.250;2022-07-21T06:28:32;27.20;;;24.30;;
8040;SDS011;4063;48.140;10.250;2022-07-21T06:30:58;27.90;;;24.83;;
8040;SDS011;4063;48.140;10.250;2022-07-21T06:33:24;27.08;;;24.42;;
8040;SDS011;4063;48.140;10.250;2022-07-21T06:35:50;25.58;;;23.25;;
8040;SDS011;4063;48.140;10.250;2022-07-21T06:38:16;25.20;;;22.80;;
8040;SDS011;4063;48.140;10.250;2022-07-21T06:40:42;26.52;;;24.05;;
8040;SDS011;4063;48.140;10.250;2022-07-21T06:43:08;27.33;;;24.63;;
8040;SDS011;4063;48.140;10.250;2022-07-21T06:45:34;26.65;;;24.08;;
8040;SDS011;4063;48.140;10.250;2022-07-21T06:48:01;26.42;;;23.80;;
8040;SDS011;4063;48.140;10.250;2022-07-21T06:50:27;23.75;;;21.50;;
8040;SDS011;4063;48.140;10.250;2022-07-21T06:52:53;20.17;;;17.92;;
8040;SDS011;4063;48.140;10.250;2022-07-21T06:55:19;20.50;;;18.30;;
8040;SDS011;4063;48.140;10.250;2022-07-21T06:57:45;16.38;;;14.88;;
8040;SDS011;4063;48.140;10.250;2022-07-21T07:00:11;18.83;;;16.95;;
8040;SDS011;4063;48.140;10.250;2022-07-21T07:02:38;17.30;;;15.57;;
8040;SDS011;4063;48.140;10.250;2022-07-21T07:05:04;17.80;;;16.10;;
8040;SDS011;4063;48.140;10.250;2022-07-21T07:07:30;17.33;;;15.50;;
8040;SDS011;4063;48.140;10.250;2022-07-21T07:09:56;16.83;;;15.10;;
8040;SDS011;4063;48.140;10.250;2022-07-21T07:12:23;16.42;;;14.70;;
8040;SDS011;4063;48.140;10.250;2022-07-21T07:14:49;15.93;;;14.38;;
8040;SDS011;4063;48.140;10.250;2022-07-21T07:17:16;18.60;;;14.95;;
8040;SDS011;4063;48.140;10.250;2022-07-21T07:19:45;16.23;;;14.55;;
8040;SDS011;4063;48.140;10.250;2022-07-21T07:22:11;16.20;;;14.63;;
8040;SDS011;4063;48.140;10.250;2022-07-21T07:24:37;18.60;;;14.63;;
8040;SDS011;4063;48.140;10.250;2022-07-21T07:27:03;18.55;;;13.95;;
8040;SDS011;4063;48.140;10.250;2022-07-21T07:29:29;15.63;;;14.02;;
8040;SDS011;4063;48.140;10.250;2022-07-21T07:31:56;13.00;;;11.73;;
8040;SDS011;4063;48.140;10.250;2022-07-21T07:34:22;13.18;;;11.98;;
8040;SDS011;4063;48.140;10.250;2022-07-21T07:36:49;11.63;;;10.57;;
8040;SDS011;4063;48.140;10.250;2022-07-21T07:39:15;19.17;;;11.40;;
8040;SDS011;4063;48.140;10.250;2022-07-21T07:41:41;11.88;;;10.68;;
8040;SDS011;4063;48.140;10.250;2022-07-21T07:44:08;12.30;;;11.00;;
8040;SDS011;4063;48.140;10.250;2022-07-21T07:46:34;12.05;;;10.90;;
8040;SDS011;4063;48.140;10.250;2022-07-21T07:49:00;14.10;;;10.90;;
8040;SDS011;4063;48.140;10.250;2022-07-21T07:51:26;13.68;;;10.85;;
8040;SDS011;4063;48.140;10.250;2022-07-21T07:53:52;11.98;;;10.77;;
8040;SDS011;4063;48.140;10.250;2022-07-21T07:56:18;14.30;;;12.80;;
8040;SDS011;4063;48.140;10.250;2022-07-21T07:58:44;14.02;;;12.27;;
8040;SDS011;4063;48.140;10.250;2022-07-21T08:01:10;13.55;;;12.18;;
8040;SDS011;4063;48.140;10.250;2022-07-21T08:03:36;14.60;;;13.10;;
8040;SDS011;4063;48.140;10.250;2022-07-21T08:06:02;14.52;;;11.23;;
8040;SDS011;4063;48.140;10.250;2022-07-21T08:08:29;12.27;;;10.85;;
8040;SDS011;4063;48.140;10.250;2022-07-21T08:10:55;13.32;;;11.35;;
8040;SDS011;4063;48.140;10.250;2022-07-21T08:13:21;12.07;;;10.88;;
8040;SDS011;4063;48.140;10.250;2022-07-21T08:15:47;13.45;;;12.15;;
8040;SDS011;4063;48.140;10.250;2022-07-21T08:18:14;12.30;;;11.10;;
8040;SDS011;4063;48.140;10.250;2022-07-21T08:20:40;12.57;;;11.45;;
8040;SDS011;4063;48.140;10.250;2022-07-21T08:23:06;12.18;;;10.90;;
8040;SDS011;4063;48.140;10.250;2022-07-21T08:25:33;12.27;;;11.27;;
8040;SDS011;4063;48.140;10.250;2022-07-21T08:27:59;14.38;;;11.95;;
8040;SDS011;4063;48.140;10.250;2022-07-21T08:30:25;11.77;;;10.57;;
8040;SDS011;4063;48.140;10.250;2022-07-21T08:32:51;11.98;;;10.77;;
8040;SDS011;4063;48.140;10.250;2022-07-21T08:35:17;12.10;;;11.00;;
8040;SDS011;4063;48.140;10.250;2022-07-21T08:37:51;11.45;;;10.45;;
8040;SDS011;4063;48.140;10.250;2022-07-21T08:40:18;12.68;;;10.63;;
8040;SDS011;4063;48.140;10.250;2022-07-21T08:42:44;12.40;;;11.18;;
8040;SDS011;4063;48.140;10.250;2022-07-21T08:45:12;10.98;;;9.88;;
8040;SDS011;4063;48.140;10.250;2022-07-21T08:47:38;11.75;;;9.20;;
8040;SDS011;4063;48.140;10.250;2022-07-21T08:50:04;10.40;;;9.30;;
8040;SDS011;4063;48.140;10.250;2022-07-21T08:52:31;13.93;;;9.13;;
8040;SDS011;4063;48.140;10.250;2022-07-21T08:54:57;9.55;;;8.55;;
8040;SDS011;4063;48.140;10.250;2022-07-21T08:57:23;9.65;;;8.75;;
8040;SDS011;4063;48.140;10.250;2022-07-21T08:59:49;10.13;;;9.15;;
8040;SDS011;4063;48.140;10.250;2022-07-21T09:02:28;9.85;;;8.70;;
8040;SDS011;4063;48.140;10.250;2022-07-21T09:04:54;8.93;;;8.13;;
8040;SDS011;4063;48.140;10.250;2022-07-21T09:07:21;9.50;;;8.50;;
8040;SDS011;4063;48.140;10.250;2022-07-21T09:09:55;10.05;;;8.70;;
8040;SDS011;4063;48.140;10.250;2022-07-21T09:12:21;10.35;;;9.30;;
8040;SDS011;4063;48.140;10.250;2022-07-21T09:14:47;9.27;;;8.38;;
8040;SDS011;4063;48.140;10.250;2022-07-21T09:17:14;11.77;;;9.23;;
8040;SDS011;4063;48.140;10.250;2022-07-21T09:19:43;9.23;;;8.32;;
8040;SDS011;4063;48.140;10.250;2022-07-21T09:22:14;9.45;;;8.48;;
8040;SDS011;4063;48.140;10.250;2022-07-21T09:24:43;10.18;;;9.20;;
8040;SDS011;4063;48.140;10.250;2022-07-21T09:27:14;9.48;;;8.60;;
8040;SDS011;4063;48.140;10.250;2022-07-21T09:29:47;10.20;;;9.30;;
8040;SDS011;4063;48.140;10.250;2022-07-21T09:34:50;11.15;;;10.00;;
8040;SDS011;4063;48.140;10.250;2022-07-21T09:37:16;10.38;;;9.30;;
8040;SDS011;4063;48.140;10.250;2022-07-21T09:42:12;10.07;;;9.18;;
8040;SDS011;4063;48.140;10.250;2022-07-21T09:44:38;12.65;;;8.90;;
8040;SDS011;4063;48.140;10.250;2022-07-21T09:47:11;10.73;;;9.77;;
8040;SDS011;4063;48.140;10.250;2022-07-21T09:49:37;10.70;;;9.60;;
8040;SDS011;4063;48.140;10.250;2022-07-21T09:52:17;10.40;;;9.00;;
8040;SDS011;4063;48.140;10.250;2022-07-21T09:54:43;10.57;;;9.15;;
8040;SDS011;4063;48.140;10.250;2022-07-21T09:57:10;9.77;;;8.88;;
8040;SDS011;4063;48.140;10.250;2022-07-21T09:59:37;9.90;;;8.60;;
8040;SDS011;4063;48.140;10.250;2022-07-21T10:02:04;9.32;;;8.52;;
8040;SDS011;4063;48.140;10.250;2022-07-21T10:04:30;12.15;;;9.75;;
8040;SDS011;4063;48.140;10.250;2022-07-21T10:06:57;9.70;;;8.70;;
8040;SDS011;4063;48.140;10.250;2022-07-21T10:09:24;10.32;;;9.52;;
8040;SDS011;4063;48.140;10.250;2022-07-21T10:11:50;9.73;;;8.82;;
8040;SDS011;4063;48.140;10.250;2022-07-21T10:14:16;9.40;;;8.50;;
8040;SDS011;4063;48.140;10.250;2022-07-21T10:16:42;9.57;;;8.60;;
8040;SDS011;4063;48.140;10.250;2022-07-21T10:19:10;9.55;;;8.65;;
8040;SDS011;4063;48.140;10.250;2022-07-21T10:22:13;11.18;;;8.60;;
8040;SDS011;4063;48.140;10.250;2022-07-21T10:24:30;10.60;;;9.60;;
8040;SDS011;4063;48.140;10.250;2022-07-21T10:32:17;9.70;;;8.73;;
8040;SDS011;4063;48.140;10.250;2022-07-21T10:34:43;10.52;;;9.52;;
8040;SDS011;4063;48.140;10.250;2022-07-21T10:37:09;12.27;;;10.88;;
8040;SDS011;4063;48.140;10.250;2022-07-21T10:39:35;10.32;;;9.32;;
8040;SDS011;4063;48.140;10.250;2022-07-21T10:42:14;10.13;;;9.20;;
8040;SDS011;4063;48.140;10.250;2022-07-21T10:44:46;10.40;;;8.98;;
8040;SDS011;4063;48.140;10.250;2022-07-21T10:47:20;10.57;;;9.48;;
8040;SDS011;4063;48.140;10.250;2022-07-21T10:49:56;10.50;;;8.35;;
8040;SDS011;4063;48.140;10.250;2022-07-21T10:57:36;9.60;;;8.70;;
8040;SDS011;4063;48.140;10.250;2022-07-21T11:00:16;9.77;;;8.55;;
8040;SDS011;4063;48.140;10.250;2022-07-21T11:02:52;9.57;;;8.63;;
8040;SDS011;4063;48.140;10.250;2022-07-21T11:05:19;9.15;;;8.25;;
8040;SDS011;4063;48.140;10.250;2022-07-21T11:10:30;9.55;;;8.07;;
8040;SDS011;4063;48.140;10.250;2022-07-21T11:12:58;8.38;;;7.57;;
8040;SDS011;4063;48.140;10.250;2022-07-21T11:15:43;12.27;;;8.23;;
8040;SDS011;4063;48.140;10.250;2022-07-21T11:18:11;8.52;;;7.57;;
8040;SDS011;4063;48.140;10.250;2022-07-21T11:20:37;7.78;;;6.85;;
8040;SDS011;4063;48.140;10.250;2022-07-21T11:23:03;8.38;;;7.25;;
8040;SDS011;4063;48.140;10.250;2022-07-21T11:25:29;7.97;;;7.28;;
8040;SDS011;4063;48.140;10.250;2022-07-21T11:27:55;8.38;;;7.57;;
8040;SDS011;4063;48.140;10.250;2022-07-21T11:30:21;7.85;;;7.10;;
8040;SDS011;4063;48.140;10.250;2022-07-21T11:32:47;9.65;;;7.55;;
8040;SDS011;4063;48.140;10.250;2022-07-21T11:35:14;7.88;;;7.03;;
8040;SDS011;4063;48.140;10.250;2022-07-21T11:37:41;7.63;;;6.20;;
8040;SDS011;4063;48.140;10.250;2022-07-21T11:40:16;6.93;;;6.32;;
8040;SDS011;4063;48.140;10.250;2022-07-21T11:42:43;9.27;;;6.00;;
8040;SDS011;4063;48.140;10.250;2022-07-21T11:45:10;8.07;;;7.22;;
8040;SDS011;4063;48.140;10.250;2022-07-21T11:47:36;7.95;;;7.25;;
8040;SDS011;4063;48.140;10.250;2022-07-21T11:50:04;7.90;;;7.07;;
8040;SDS011;4063;48.140;10.250;2022-07-21T11:52:32;8.20;;;7.50;;
8040;SDS011;4063;48.140;10.250;2022-07-21T11:55:00;8.85;;;6.60;;
8040;SDS011;4063;48.140;10.250;2022-07-21T11:57:27;7.07;;;6.40;;
8040;SDS011;4063;48.140;10.250;2022-07-21T11:59:53;7.68;;;6.97;;
8040;SDS011;4063;48.140;10.250;2022-07-21T12:02:20;7.82;;;6.47;;
8040;SDS011;4063;48.140;10.250;2022-07-21T12:04:48;8.57;;;7.70;;
8040;SDS011;4063;48.140;10.250;2022-07-21T12:07:21;8.02;;;7.22;;
8040;SDS011;4063;48.140;10.250;2022-07-21T12:09:51;9.68;;;7.00;;
8040;SDS011;4063;48.140;10.250;2022-07-21T12:12:30;7.18;;;6.50;;
8040;SDS011;4063;48.140;10.250;2022-07-21T12:14:57;8.88;;;6.05;;
8040;SDS011;4063;48.140;10.250;2022-07-21T12:17:37;7.75;;;5.78;;
8040;SDS011;4063;48.140;10.250;2022-07-21T12:20:04;7.40;;;5.93;;
8040;SDS011;4063;48.140;10.250;2022-07-21T12:24:59;6.03;;;5.53;;
8040;SDS011;4063;48.140;10.250;2022-07-21T12:27:25;7.10;;;6.45;;
8040;SDS011;4063;48.140;10.250;2022-07-21T12:29:51;7.88;;;6.50;;
8040;SDS011;4063;48.140;10.250;2022-07-21T12:32:37;9.25;;;6.25;;
8040;SDS011;4063;48.140;10.250;2022-07-21T12:35:03;7.38;;;5.75;;
8040;SDS011;4063;48.140;10.250;2022-07-21T12:40:14;7.10;;;5.80;;
8040;SDS011;4063;48.140;10.250;2022-07-21T12:42:40;6.70;;;6.20;;
8040;SDS011;4063;48.140;10.250;2022-07-21T12:45:13;6.03;;;5.50;;
8040;SDS011;4063;48.140;10.250;2022-07-21T12:47:39;6.82;;;5.85;;
8040;SDS011;4063;48.140;10.250;2022-07-21T12:50:07;5.90;;;5.32;;
8040;SDS011;4063;48.140;10.250;2022-07-21T12:52:34;6.90;;;5.30;;
8040;SDS011;4063;48.140;10.250;2022-07-21T12:55:00;5.68;;;4.82;;
8040;SDS011;4063;48.140;10.250;2022-07-21T12:57:27;6.20;;;5.60;;
8040;SDS011;4063;48.140;10.250;2022-07-21T12:59:53;6.00;;;5.40;;
8040;SDS011;4063;48.140;10.250;2022-07-21T13:02:19;5.95;;;5.20;;
8040;SDS011;4063;48.140;10.250;2022-07-21T13:04:45;5.60;;;5.13;;
8040;SDS011;4063;48.140;10.250;2022-07-21T13:07:11;11.25;;;5.95;;
8040;SDS011;4063;48.140;10.250;2022-07-21T13:09:37;5.28;;;4.82;;
8040;SDS011;4063;48.140;10.250;2022-07-21T13:12:04;5.60;;;5.10;;
8040;SDS011;4063;48.140;10.250;2022-07-21T13:14:30;5.40;;;4.70;;
8040;SDS011;4063;48.140;10.250;2022-07-21T13:16:57;5.38;;;4.88;;
8040;SDS011;4063;48.140;10.250;2022-07-21T13:19:23;5.22;;;4.72;;
8040;SDS011;4063;48.140;10.250;2022-07-21T13:21:50;5.97;;;4.70;;
8040;SDS011;4063;48.140;10.250;2022-07-21T13:24:16;5.05;;;4.65;;
8040;SDS011;4063;48.140;10.250;2022-07-21T13:26:42;5.35;;;4.70;;
8040;SDS011;4063;48.140;10.250;2022-07-21T13:29:08;5.55;;;4.53;;
8040;SDS011;4063;48.140;10.250;2022-07-21T13:31:34;7.43;;;4.80;;
8040;SDS011;4063;48.140;10.250;2022-07-21T13:34:04;7.45;;;4.30;;
8040;SDS011;4063;48.140;10.250;2022-07-21T13:36:32;5.60;;;4.38;;
8040;SDS011;4063;48.140;10.250;2022-07-21T13:38:58;5.05;;;4.57;;
8040;SDS011;4063;48.140;10.250;2022-07-21T13:41:24;5.60;;;4.55;;
8040;SDS011;4063;48.140;10.250;2022-07-21T13:43:51;4.63;;;4.22;;
8040;SDS011;4063;48.140;10.250;2022-07-21T13:46:17;5.10;;;4.57;;
8040;SDS011;4063;48.140;10.250;2022-07-21T13:48:43;5.10;;;4.60;;
8040;SDS011;4063;48.140;10.250;2022-07-21T13:51:13;4.75;;;4.35;;
8040;SDS011;4063;48.140;10.250;2022-07-21T13:53:40;4.78;;;4.15;;
8040;SDS011;4063;48.140;10.250;2022-07-21T13:56:06;4.57;;;4.18;;
8040;SDS011;4063;48.140;10.250;2022-07-21T13:58:32;4.95;;;4.18;;
8040;SDS011;4063;48.140;10.250;2022-07-21T14:00:59;4.43;;;4.10;;
8040;SDS011;4063;48.140;10.250;2022-07-21T14:03:25;5.65;;;4.25;;
8040;SDS011;4063;48.140;10.250;2022-07-21T14:05:51;6.47;;;4.07;;
8040;SDS011;4063;48.140;10.250;2022-07-21T14:08:17;5.70;;;5.07;;
8040;SDS011;4063;48.140;10.250;2022-07-21T14:10:43;5.82;;;4.05;;
8040;SDS011;4063;48.140;10.250;2022-07-21T14:13:09;4.88;;;4.47;;
8040;SDS011;4063;48.140;10.250;2022-07-21T14:15:35;6.30;;;4.78;;
8040;SDS011;4063;48.140;10.250;2022-07-21T14:18:01;5.18;;;4.72;;
8040;SDS011;4063;48.140;10.250;2022-07-21T14:20:27;5.18;;;4.43;;
8040;SDS011;4063;48.140;10.250;2022-07-21T14:22:54;9.43;;;4.40;;
8040;SDS011;4063;48.140;10.250;2022-07-21T14:25:20;4.60;;;4.20;;
8040;SDS011;4063;48.140;10.250;2022-07-21T14:27:47;4.93;;;4.43;;
8040;SDS011;4063;48.140;10.250;2022-07-21T14:30:14;5.03;;;4.07;;
8040;SDS011;4063;48.140;10.250;2022-07-21T14:32:40;5.25;;;3.88;;
8040;SDS011;4063;48.140;10.250;2022-07-21T14:35:06;3.90;;;3.60;;
8040;SDS011;4063;48.140;10.250;2022-07-21T14:37:32;4.65;;;4.20;;
8040;SDS011;4063;48.140;10.250;2022-07-21T14:39:58;5.20;;;4.70;;
8040;SDS011;4063;48.140;10.250;2022-07-21T14:42:24;4.15;;;3.85;;
8040;SDS011;4063;48.140;10.250;2022-07-21T14:44:50;6.10;;;3.90;;
8040;SDS011;4063;48.140;10.250;2022-07-21T14:47:16;4.65;;;3.58;;
8040;SDS011;4063;48.140;10.250;2022-07-21T14:49:42;4.80;;;4.15;;
8040;SDS011;4063;48.140;10.250;2022-07-21T14:52:08;6.28;;;3.97;;
8040;SDS011;4063;48.140;10.250;2022-07-21T14:54:35;4.57;;;4.18;;
8040;SDS011;4063;48.140;10.250;2022-07-21T14:57:01;6.10;;;5.05;;
8040;SDS011;4063;48.140;10.250;2022-07-21T14:59:27;7.05;;;5.45;;
8040;SDS011;4063;48.140;10.250;2022-07-21T15:01:53;4.65;;;4.25;;
8040;SDS011;4063;48.140;10.250;2022-07-21T15:04:19;4.90;;;4.38;;
8040;SDS011;4063;48.140;10.250;2022-07-21T15:06:47;4.32;;;3.92;;
8040;SDS011;4063;48.140;10.250;2022-07-21T15:09:13;6.50;;;4.50;;